DEMAZ EDJA-EDDN
Flight info
| Callsign | DEMAZ |
|---|---|
| Flight time | N/A |
| Altitude | 10000 |
| Route | OVERFLIGHT OF EDDM |
| Aircraft | M20P/L-S/LB1 |
Departure
| Time | 2026-04-10 13:21 |
|---|---|
| Airport | Memmingen Allgau Airport (EDJA) |
Arrival
| Time | N/A |
|---|---|
| Airport | Nuremberg Airport (EDDN) |
| Time | Latitude | Longitude | Altitude | Speed | Heading |
|---|---|---|---|---|---|
| 2026-04-10 13:12 | 47.98742 | 10.22713 | 2074 ft | 0 kts | 48° |
| 2026-04-10 13:18 | 47.98742 | 10.22720 | 2074 ft | 5 kts | 119° |
| 2026-04-10 13:18 | 47.98650 | 10.22709 | 2074 ft | 18 kts | 177° |
| 2026-04-10 13:18 | 47.98528 | 10.22707 | 2074 ft | 17 kts | 193° |
| 2026-04-10 13:19 | 47.98502 | 10.22685 | 2074 ft | 6 kts | 203° |
| 2026-04-10 13:19 | 47.98449 | 10.22570 | 2074 ft | 22 kts | 236° |
| 2026-04-10 13:19 | 47.98355 | 10.22624 | 2078 ft | 18 kts | 68° |
| 2026-04-10 13:19 | 47.98441 | 10.22831 | 2075 ft | 41 kts | 64° |
| 2026-04-10 13:20 | 47.98660 | 10.23377 | 2082 ft | 79 kts | 53° |
| 2026-04-10 13:20 | 47.98970 | 10.24195 | 2152 ft | 102 kts | 55° |
| 2026-04-10 13:20 | 47.99361 | 10.25180 | 2311 ft | 117 kts | 56° |
| 2026-04-10 13:20 | 47.99649 | 10.26351 | 2497 ft | 126 kts | 81° |
| 2026-04-10 13:21 | 47.99574 | 10.27692 | 2653 ft | 134 kts | 94° |
| 2026-04-10 13:21 | 47.99583 | 10.29161 | 2610 ft | 149 kts | 82° |
| 2026-04-10 13:21 | 47.99553 | 10.30752 | 2619 ft | 156 kts | 92° |
| 2026-04-10 13:21 | 47.99436 | 10.32368 | 2863 ft | 156 kts | 92° |
| 2026-04-10 13:22 | 47.99313 | 10.33976 | 3128 ft | 156 kts | 93° |
| 2026-04-10 13:22 | 47.99189 | 10.35587 | 3383 ft | 156 kts | 93° |
| 2026-04-10 13:22 | 47.99064 | 10.37291 | 3307 ft | 175 kts | 94° |
| 2026-04-10 13:22 | 47.99049 | 10.39163 | 3171 ft | 184 kts | 72° |
| 2026-04-10 13:23 | 47.99694 | 10.40792 | 3123 ft | 182 kts | 49° |
| 2026-04-10 13:23 | 48.00463 | 10.42260 | 3127 ft | 177 kts | 49° |
| 2026-04-10 13:23 | 48.01204 | 10.43685 | 3120 ft | 174 kts | 49° |
| 2026-04-10 13:23 | 48.01942 | 10.45102 | 3124 ft | 172 kts | 48° |
| 2026-04-10 13:24 | 48.02676 | 10.46512 | 3118 ft | 171 kts | 49° |
| 2026-04-10 13:24 | 48.03384 | 10.47878 | 3321 ft | 162 kts | 50° |
| 2026-04-10 13:24 | 48.04058 | 10.49189 | 3565 ft | 157 kts | 48° |
| 2026-04-10 13:24 | 48.04714 | 10.50479 | 3816 ft | 155 kts | 49° |
| 2026-04-10 13:25 | 48.05385 | 10.51755 | 10059 ft | 161 kts | 32° |
| 2026-04-10 13:25 | 48.06097 | 10.53138 | 10033 ft | 174 kts | 49° |
| 2026-04-10 13:25 | 48.06914 | 10.54352 | 10021 ft | 160 kts | 17° |
| 2026-04-10 13:25 | 48.07920 | 10.55055 | 10016 ft | 160 kts | 14° |
| 2026-04-10 13:26 | 48.08865 | 10.56042 | 10002 ft | 172 kts | 33° |
| 2026-04-10 13:26 | 48.09689 | 10.57379 | 10009 ft | 176 kts | 39° |
| 2026-04-10 13:26 | 48.10500 | 10.58763 | 10008 ft | 177 kts | 39° |
| 2026-04-10 13:26 | 48.11310 | 10.60146 | 10010 ft | 176 kts | 39° |
| 2026-04-10 13:27 | 48.12115 | 10.61529 | 10014 ft | 176 kts | 39° |
| 2026-04-10 13:27 | 48.12924 | 10.62910 | 10009 ft | 176 kts | 39° |
| 2026-04-10 13:27 | 48.13732 | 10.64289 | 10009 ft | 176 kts | 39° |
| 2026-04-10 13:27 | 48.14542 | 10.65673 | 10012 ft | 177 kts | 39° |
| 2026-04-10 13:28 | 48.15353 | 10.67057 | 10016 ft | 177 kts | 39° |
| 2026-04-10 13:28 | 48.16164 | 10.68451 | 10017 ft | 177 kts | 39° |
| 2026-04-10 13:28 | 48.16974 | 10.69844 | 10016 ft | 177 kts | 39° |
| 2026-04-10 13:28 | 48.17928 | 10.70331 | 10044 ft | 134 kts | 338° |
| 2026-04-10 13:29 | 48.18537 | 10.69436 | 9160 ft | 122 kts | 297° |
| 2026-04-10 13:29 | 48.18812 | 10.68219 | 7818 ft | 129 kts | 282° |
| 2026-04-10 13:29 | 48.19211 | 10.67000 | 6429 ft | 146 kts | 315° |
| 2026-04-10 13:29 | 48.20124 | 10.66841 | 4457 ft | 31 kts | 359° |
| 2026-04-10 13:30 | 48.21191 | 10.67315 | 9215 ft | 180 kts | 358° |
| 2026-04-10 13:30 | 48.22313 | 10.67767 | 9530 ft | 161 kts | 15° |
| 2026-04-10 13:30 | 48.23181 | 10.68779 | 9864 ft | 158 kts | 39° |
| 2026-04-10 13:30 | 48.23700 | 10.70220 | 10170 ft | 158 kts | 65° |
| 2026-04-10 13:31 | 48.23789 | 10.71815 | 10458 ft | 155 kts | 92° |
| 2026-04-10 13:31 | 48.23513 | 10.73497 | 10367 ft | 178 kts | 104° |
| 2026-04-10 13:31 | 48.23150 | 10.75365 | 10235 ft | 194 kts | 105° |
| 2026-04-10 13:31 | 48.22762 | 10.77359 | 10111 ft | 204 kts | 105° |
| 2026-04-10 13:32 | 48.22331 | 10.79419 | 9973 ft | 210 kts | 111° |
| 2026-04-10 13:32 | 48.21767 | 10.81464 | 9828 ft | 214 kts | 112° |
| 2026-04-10 13:32 | 48.21196 | 10.83547 | 9677 ft | 218 kts | 112° |
| 2026-04-10 13:32 | 48.20618 | 10.85663 | 9525 ft | 220 kts | 112° |
| 2026-04-10 13:33 | 48.20036 | 10.87795 | 9371 ft | 222 kts | 112° |
| 2026-04-10 13:33 | 48.19453 | 10.89938 | 9217 ft | 222 kts | 112° |
| 2026-04-10 13:33 | 48.18868 | 10.92094 | 9056 ft | 223 kts | 112° |
| 2026-04-10 13:33 | 48.18284 | 10.94248 | 8907 ft | 223 kts | 112° |
| 2026-04-10 13:34 | 48.17701 | 10.96404 | 8744 ft | 223 kts | 112° |
| 2026-04-10 13:34 | 48.17121 | 10.98557 | 8594 ft | 222 kts | 112° |
| 2026-04-10 13:34 | 48.16543 | 11.00706 | 8439 ft | 222 kts | 112° |
| 2026-04-10 13:34 | 48.15968 | 11.02849 | 8285 ft | 222 kts | 112° |
| 2026-04-10 13:35 | 48.15396 | 11.04988 | 8128 ft | 221 kts | 112° |
| 2026-04-10 13:35 | 48.14829 | 11.07108 | 8040 ft | 217 kts | 112° |
| 2026-04-10 13:35 | 48.14281 | 11.09161 | 8035 ft | 206 kts | 112° |
| 2026-04-10 13:35 | 48.13761 | 11.11115 | 8025 ft | 199 kts | 112° |
| 2026-04-10 13:36 | 48.13259 | 11.13013 | 8018 ft | 194 kts | 111° |
| 2026-04-10 13:36 | 48.12830 | 11.14912 | 8015 ft | 191 kts | 107° |
| 2026-04-10 13:36 | 48.12436 | 11.16809 | 8015 ft | 193 kts | 107° |
| 2026-04-10 13:36 | 48.12031 | 11.18753 | 8020 ft | 197 kts | 107° |
| 2026-04-10 13:37 | 48.11624 | 11.20694 | 8019 ft | 197 kts | 107° |
| 2026-04-10 13:37 | 48.11214 | 11.22634 | 8015 ft | 194 kts | 107° |
| 2026-04-10 13:37 | 48.10788 | 11.24563 | 8011 ft | 191 kts | 111° |
| 2026-04-10 13:37 | 48.10285 | 11.26402 | 8009 ft | 191 kts | 113° |
| 2026-04-10 13:38 | 48.09780 | 11.28212 | 8010 ft | 191 kts | 113° |
| 2026-04-10 13:38 | 48.09267 | 11.30042 | 8054 ft | 189 kts | 113° |
| 2026-04-10 13:38 | 48.08760 | 11.31863 | 8183 ft | 190 kts | 113° |
| 2026-04-10 13:38 | 48.08319 | 11.33743 | 8306 ft | 189 kts | 94° |
| 2026-04-10 13:39 | 48.08380 | 11.35686 | 8438 ft | 186 kts | 79° |
| 2026-04-10 13:39 | 48.08424 | 11.36735 | 3756 ft | 156 kts | 78° |
| 2026-04-10 13:39 | 48.08702 | 11.38678 | 2645 ft | 182 kts | 72° |
| 2026-04-10 13:39 | 48.08994 | 11.40418 | 2408 ft | 168 kts | 73° |
| 2026-04-10 13:40 | 48.09181 | 11.42067 | 2271 ft | 159 kts | 80° |
| 2026-04-10 13:40 | 48.09323 | 11.43699 | 2354 ft | 157 kts | 80° |
| 2026-04-10 13:40 | 48.09464 | 11.45298 | 2437 ft | 155 kts | 80° |
| 2026-04-10 13:40 | 48.09600 | 11.46892 | 2522 ft | 156 kts | 79° |
| 2026-04-10 13:41 | 48.09724 | 11.48512 | 2608 ft | 157 kts | 81° |
| 2026-04-10 13:41 | 48.09857 | 11.50133 | 2662 ft | 158 kts | 78° |
| 2026-04-10 13:41 | 48.09986 | 11.51830 | 2588 ft | 168 kts | 81° |
| 2026-04-10 13:41 | 48.10123 | 11.53555 | 2585 ft | 169 kts | 79° |
| 2026-04-10 13:42 | 48.10525 | 11.55154 | 2575 ft | 165 kts | 47° |
| 2026-04-10 13:42 | 48.11312 | 11.56404 | 2577 ft | 165 kts | 43° |
| 2026-04-10 13:42 | 48.12101 | 11.57640 | 2590 ft | 165 kts | 43° |
| 2026-04-10 13:42 | 48.12892 | 11.58893 | 2592 ft | 166 kts | 43° |
| 2026-04-10 13:43 | 48.13669 | 11.60189 | 2584 ft | 169 kts | 53° |
| 2026-04-10 13:43 | 48.13901 | 11.61911 | 2576 ft | 176 kts | 92° |
| 2026-04-10 13:43 | 48.13813 | 11.63751 | 2573 ft | 176 kts | 89° |
| 2026-04-10 13:43 | 48.13798 | 11.65581 | 2617 ft | 175 kts | 88° |
| 2026-04-10 13:44 | 48.13779 | 11.67388 | 2674 ft | 173 kts | 88° |
| 2026-04-10 13:44 | 48.13753 | 11.69189 | 2731 ft | 173 kts | 88° |
| 2026-04-10 13:44 | 48.13733 | 11.71003 | 2783 ft | 174 kts | 87° |
| 2026-04-10 13:44 | 48.13837 | 11.72814 | 2789 ft | 175 kts | 79° |
| 2026-04-10 13:45 | 48.14011 | 11.74631 | 2786 ft | 176 kts | 75° |
| 2026-04-10 13:45 | 48.14479 | 11.76267 | 2781 ft | 173 kts | 57° |
| 2026-04-10 13:45 | 48.15080 | 11.77850 | 2781 ft | 171 kts | 52° |
| 2026-04-10 13:45 | 48.15958 | 11.78987 | 2776 ft | 167 kts | 30° |
| 2026-04-10 13:46 | 48.16921 | 11.79952 | 2778 ft | 167 kts | 30° |
| 2026-04-10 13:46 | 48.17891 | 11.80923 | 2785 ft | 168 kts | 30° |
| 2026-04-10 13:46 | 48.18916 | 11.81715 | 2783 ft | 165 kts | 16° |
| 2026-04-10 13:46 | 48.20031 | 11.82007 | 2775 ft | 163 kts | 359° |
| 2026-04-10 13:47 | 48.21146 | 11.82027 | 2777 ft | 163 kts | 358° |
| 2026-04-10 13:47 | 48.22279 | 11.82024 | 2784 ft | 163 kts | 355° |
| 2026-04-10 13:47 | 48.23391 | 11.81910 | 2777 ft | 155 kts | 353° |
| 2026-04-10 13:47 | 48.24477 | 11.81782 | 2775 ft | 158 kts | 353° |
| 2026-04-10 13:48 | 48.25579 | 11.81653 | 2778 ft | 160 kts | 353° |
| 2026-04-10 13:48 | 48.26693 | 11.81525 | 2783 ft | 161 kts | 353° |
| 2026-04-10 13:48 | 48.27805 | 11.81392 | 2780 ft | 160 kts | 353° |
| 2026-04-10 13:48 | 48.28918 | 11.81257 | 2784 ft | 161 kts | 352° |
| 2026-04-10 13:49 | 48.30021 | 11.81428 | 2771 ft | 165 kts | 24° |
| 2026-04-10 13:49 | 48.30739 | 11.82787 | 2754 ft | 173 kts | 63° |
| 2026-04-10 13:49 | 48.31435 | 11.84177 | 2744 ft | 165 kts | 27° |
| 2026-04-10 13:49 | 48.32531 | 11.84417 | 2737 ft | 159 kts | 347° |
| 2026-04-10 13:50 | 48.33628 | 11.83942 | 2444 ft | 173 kts | 335° |
| 2026-04-10 13:50 | 48.34449 | 11.82764 | 2148 ft | 154 kts | 298° |
| 2026-04-10 13:50 | 48.34575 | 11.81406 | 1766 ft | 128 kts | 265° |
| 2026-04-10 13:50 | 48.34454 | 11.80160 | 1496 ft | 110 kts | 270° |
| 2026-04-10 13:51 | 48.34380 | 11.79154 | 1475 ft | 84 kts | 270° |
| 2026-04-10 13:51 | 48.34418 | 11.78463 | 1468 ft | 53 kts | 296° |
| 2026-04-10 13:51 | 48.34481 | 11.78226 | 1463 ft | 0 kts | 292° |
| 2026-04-10 13:51 | 48.34482 | 11.78224 | 1463 ft | 3 kts | 295° |
| 2026-04-10 13:52 | 48.34526 | 11.78095 | 1466 ft | 15 kts | 295° |
| 2026-04-10 13:52 | 48.34530 | 11.78083 | 1464 ft | 4 kts | 291° |
| 2026-04-10 13:52 | 48.34630 | 11.78074 | 1466 ft | 25 kts | 1° |
| 2026-04-10 13:52 | 48.34697 | 11.78333 | 1461 ft | 41 kts | 82° |
| 2026-04-10 13:53 | 48.34732 | 11.78785 | 1466 ft | 42 kts | 88° |
| 2026-04-10 13:53 | 48.34765 | 11.79198 | 1466 ft | 38 kts | 84° |
| 2026-04-10 13:53 | 48.34788 | 11.79520 | 1466 ft | 19 kts | 71° |
| 2026-04-10 13:53 | 48.34896 | 11.79552 | 1464 ft | 5 kts | 353° |
| 2026-04-10 13:55 | 48.34909 | 11.79550 | 1465 ft | 9 kts | 357° |
| 2026-04-10 13:55 | 48.35018 | 11.79529 | 1466 ft | 19 kts | 354° |
| 2026-04-10 13:55 | 48.35125 | 11.79591 | 1466 ft | 22 kts | 83° |
| 2026-04-10 13:56 | 48.35145 | 11.79875 | 1466 ft | 34 kts | 82° |
| 2026-04-10 13:56 | 48.35220 | 11.80156 | 1462 ft | 26 kts | 340° |
| 2026-04-10 13:56 | 48.35412 | 11.80145 | 1464 ft | 21 kts | 65° |
| 2026-04-10 13:56 | 48.35418 | 11.80354 | 1466 ft | 20 kts | 97° |
| 2026-04-10 13:57 | 48.35416 | 11.80417 | 1466 ft | 1 kts | 85° |
| 2026-04-10 13:57 | 48.35429 | 11.80487 | 1466 ft | 0 kts | 100° |